createdAt,value
2023-02-19T00:00:14.164Z,100950.28
2023-02-19T00:02:45.372Z,100948.72
2023-02-19T00:05:14.020Z,100951.69
2023-02-19T00:07:43.885Z,100958.31
2023-02-19T00:10:12.918Z,100959.50
2023-02-19T00:12:42.886Z,100953.25
2023-02-19T00:15:13.521Z,100953.50
2023-02-19T00:17:42.340Z,100956.84
2023-02-19T00:20:11.189Z,100954.09
2023-02-19T00:22:40.498Z,100953.38
2023-02-19T00:25:08.941Z,100948.41
2023-02-19T00:27:37.392Z,100950.81
2023-02-19T00:30:07.940Z,100949.31
2023-02-19T00:32:37.735Z,100950.34
2023-02-19T00:35:07.800Z,100936.94
2023-02-19T00:37:38.527Z,100933.13
2023-02-19T00:40:07.243Z,100927.72
2023-02-19T00:42:38.948Z,100932.59
2023-02-19T00:45:09.435Z,100926.13
2023-02-19T00:47:47.144Z,100925.16
2023-02-19T00:50:15.637Z,100928.75
2023-02-19T00:52:45.717Z,100930.94
2023-02-19T00:55:14.492Z,100929.47
2023-02-19T00:57:43.880Z,100932.41
2023-02-19T01:00:18.388Z,100926.59
2023-02-19T01:02:47.198Z,100917.97
2023-02-19T01:05:15.389Z,100917.66
2023-02-19T01:07:45.198Z,100917.00
2023-02-19T01:10:19.292Z,100924.66
2023-02-19T01:12:49.318Z,100914.84
2023-02-19T01:15:22.078Z,100912.25
2023-02-19T01:17:51.019Z,100916.69
2023-02-19T01:20:20.630Z,100911.84
2023-02-19T01:22:50.149Z,100903.94
2023-02-19T01:25:18.507Z,100901.59
2023-02-19T01:27:48.687Z,100892.22
2023-02-19T01:30:19.945Z,100874.34
2023-02-19T01:32:50.080Z,100881.34
2023-02-19T01:35:20.132Z,100870.50
2023-02-19T01:37:51.005Z,100850.97
2023-02-19T01:40:20.338Z,100856.84
2023-02-19T01:42:50.315Z,100859.94
2023-02-19T01:45:25.277Z,100870.56
2023-02-19T01:48:09.645Z,100870.22
2023-02-19T01:50:42.202Z,100865.66
2023-02-19T01:53:14.633Z,100868.81
2023-02-19T01:55:43.576Z,100853.31
2023-02-19T01:58:12.296Z,100860.78
2023-02-19T02:00:41.682Z,100853.59
2023-02-19T02:03:11.085Z,100853.50
2023-02-19T02:05:46.404Z,100844.50
2023-02-19T02:08:32.881Z,100832.16
2023-02-19T02:11:05.003Z,100839.31
2023-02-19T02:13:42.464Z,100824.00
2023-02-19T02:16:21.903Z,100834.03
2023-02-19T02:18:57.974Z,100831.88
2023-02-19T02:21:49.645Z,100840.88
2023-02-19T02:24:36.272Z,100833.66
2023-02-19T02:27:21.273Z,100831.38
2023-02-19T02:30:07.712Z,100841.69
2023-02-19T02:32:40.593Z,100842.88
2023-02-19T02:35:10.933Z,100841.75
2023-02-19T02:37:42.938Z,100845.41
2023-02-19T02:40:13.123Z,100838.03
2023-02-19T02:42:42.731Z,100829.84
2023-02-19T02:45:38.914Z,100830.06
2023-02-19T02:48:34.710Z,100830.72
2023-02-19T02:51:08.257Z,100830.91
2023-02-19T02:54:05.511Z,100830.22
2023-02-19T02:56:37.010Z,100836.13
2023-02-19T02:59:11.545Z,100837.28
2023-02-19T03:02:01.564Z,100836.91
2023-02-19T03:04:33.779Z,100843.34
2023-02-19T03:07:13.113Z,100839.38
2023-02-19T03:15:10.420Z,100845.13
2023-02-19T03:18:00.797Z,100853.38
2023-02-19T03:20:29.676Z,100850.63
2023-02-19T03:23:01.482Z,100852.19
2023-02-19T03:25:51.257Z,100860.88
2023-02-19T03:28:44.711Z,100859.63
2023-02-19T03:31:15.092Z,100871.22
2023-02-19T03:33:44.987Z,100870.47
2023-02-19T03:36:15.601Z,100860.63
2023-02-19T03:38:52.160Z,100861.25
2023-02-19T03:41:35.503Z,100864.22
2023-02-19T03:44:13.883Z,100873.47
2023-02-19T03:46:47.185Z,100874.84
2023-02-19T03:49:23.951Z,100876.44
2023-02-19T03:51:56.046Z,100877.81
2023-02-19T03:54:30.636Z,100876.34
2023-02-19T03:57:04.767Z,100865.81
2023-02-19T03:59:37.003Z,100870.78
2023-02-19T04:02:15.790Z,100875.59
2023-02-19T04:04:47.398Z,100881.28
2023-02-19T04:07:15.747Z,100877.16
2023-02-19T04:09:49.048Z,100886.53
2023-02-19T04:12:22.024Z,100888.63
2023-02-19T04:14:55.579Z,100894.50
2023-02-19T04:17:32.759Z,100898.25
2023-02-19T04:20:05.388Z,100898.19
2023-02-19T04:22:33.573Z,100901.03
2023-02-19T04:25:04.030Z,100895.25
2023-02-19T04:27:32.788Z,100898.09
2023-02-19T04:30:01.625Z,100908.59
2023-02-19T04:32:31.125Z,100908.25
2023-02-19T04:35:01.241Z,100907.63
2023-02-19T04:37:34.380Z,100919.91
2023-02-19T04:40:02.497Z,100919.91
2023-02-19T04:42:32.417Z,100915.72
2023-02-19T04:45:02.955Z,100912.13
2023-02-19T04:47:35.924Z,100915.81
2023-02-19T04:50:04.405Z,100928.50
2023-02-19T04:52:37.602Z,100921.13
2023-02-19T04:55:10.509Z,100921.75
2023-02-19T04:57:39.097Z,100923.00
2023-02-19T05:00:11.821Z,100936.53
2023-02-19T05:02:40.089Z,100930.31
2023-02-19T05:05:11.425Z,100932.78
2023-02-19T05:07:41.086Z,100931.03
2023-02-19T05:10:13.116Z,100940.59
2023-02-19T05:12:44.720Z,100937.22
2023-02-19T05:15:13.295Z,100934.50
2023-02-19T05:17:41.309Z,100931.03
2023-02-19T05:20:10.327Z,100935.75
2023-02-19T05:22:42.867Z,100925.03
2023-02-19T05:25:12.684Z,100933.66
2023-02-19T05:27:43.752Z,100919.38
2023-02-19T05:30:14.959Z,100926.72
2023-02-19T05:32:42.992Z,100936.38
2023-02-19T05:35:11.426Z,100936.38
2023-02-19T05:37:42.357Z,100937.97
2023-02-19T05:40:13.250Z,100938.06
2023-02-19T05:42:43.643Z,100927.47
2023-02-19T05:45:12.675Z,100937.03
2023-02-19T05:47:41.681Z,100935.97
2023-02-19T05:50:09.643Z,100938.19
2023-02-19T05:52:40.143Z,100941.50
2023-02-19T05:55:09.592Z,100943.09
2023-02-19T05:57:43.549Z,100951.16
2023-02-19T06:00:13.884Z,100950.31
2023-02-19T06:02:42.268Z,100948.72
2023-02-19T06:05:10.991Z,100946.97
2023-02-19T06:07:43.390Z,100952.28
2023-02-19T06:10:12.638Z,100945.34
2023-02-19T06:12:40.945Z,100937.75
2023-02-19T06:15:09.860Z,100944.59
2023-02-19T06:17:38.396Z,100955.16
2023-02-19T06:20:07.280Z,100951.53
2023-02-19T06:22:35.679Z,100946.38
2023-02-19T06:25:07.899Z,100948.63
2023-02-19T06:27:37.966Z,100945.72
2023-02-19T06:30:06.626Z,100948.53
2023-02-19T06:32:35.392Z,100948.66
2023-02-19T06:35:03.765Z,100966.84
2023-02-19T06:37:32.415Z,100974.09
2023-02-19T06:40:02.811Z,100978.50
2023-02-19T06:42:34.160Z,100982.19
2023-02-19T06:45:04.370Z,100997.00
2023-02-19T06:47:32.929Z,100996.78
2023-02-19T06:50:01.970Z,101000.84
2023-02-19T06:52:31.002Z,101014.09
2023-02-19T06:55:01.711Z,101017.03
2023-02-19T06:57:31.205Z,101019.22
2023-02-19T07:00:00.656Z,101024.81
2023-02-19T07:02:30.686Z,101016.00
2023-02-19T07:04:58.561Z,101033.84
2023-02-19T07:07:28.672Z,101038.50
2023-02-19T07:09:57.377Z,101032.16
2023-02-19T07:12:26.068Z,101033.50
2023-02-19T07:14:55.131Z,101034.69
2023-02-19T07:17:24.369Z,101042.09
2023-02-19T07:19:52.814Z,101039.19
2023-02-19T07:22:21.582Z,101046.13
2023-02-19T07:24:49.768Z,101056.59
2023-02-19T07:27:17.791Z,101055.47
2023-02-19T07:29:46.386Z,101055.97
2023-02-19T07:32:14.362Z,101072.19
2023-02-19T07:34:44.273Z,101063.69
2023-02-19T07:37:12.705Z,101072.34
2023-02-19T07:39:40.898Z,101073.22
2023-02-19T07:42:09.340Z,101077.22
2023-02-19T07:44:39.887Z,101088.69
2023-02-19T07:47:08.467Z,101083.31
2023-02-19T07:49:36.549Z,101093.78
2023-02-19T07:52:08.873Z,101096.84
2023-02-19T07:54:37.426Z,101102.94
2023-02-19T07:57:05.659Z,101103.72
2023-02-19T07:59:33.895Z,101111.22
2023-02-19T08:02:20.722Z,101111.94
2023-02-19T08:04:51.384Z,101119.28
2023-02-19T08:07:21.054Z,101132.88
2023-02-19T08:10:09.914Z,101130.44
2023-02-19T08:12:55.400Z,101140.03
2023-02-19T08:15:26.114Z,101141.06
2023-02-19T08:17:54.791Z,101154.16
2023-02-19T08:20:24.089Z,101149.91
2023-02-19T08:22:55.268Z,101154.53
2023-02-19T08:25:23.523Z,101166.91
2023-02-19T08:27:51.751Z,101160.00
2023-02-19T08:30:19.910Z,101167.63
2023-02-19T08:32:49.127Z,101180.03
2023-02-19T08:35:20.762Z,101185.56
2023-02-19T08:37:48.909Z,101196.09
2023-02-19T08:40:19.050Z,101188.19
2023-02-19T08:42:47.172Z,101191.94
2023-02-19T08:45:16.420Z,101194.72
2023-02-19T08:47:45.784Z,101203.03
2023-02-19T08:50:14.335Z,101198.19
2023-02-19T08:52:43.526Z,101207.97
2023-02-19T08:55:12.994Z,101212.28
2023-02-19T08:57:42.891Z,101216.69
2023-02-19T09:00:14.013Z,101217.38
2023-02-19T09:02:42.244Z,101230.16
2023-02-19T09:05:13.483Z,101232.00
2023-02-19T09:07:42.248Z,101243.13
2023-02-19T09:10:11.928Z,101250.38
2023-02-19T09:12:40.648Z,101258.47
2023-02-19T09:15:10.351Z,101246.28
2023-02-19T09:17:40.528Z,101254.59
2023-02-19T09:20:10.999Z,101248.22
2023-02-19T09:22:39.127Z,101265.00
2023-02-19T09:25:16.399Z,101264.03
2023-02-19T09:27:45.512Z,101265.22
2023-02-19T09:30:20.289Z,101266.34
2023-02-19T09:32:49.960Z,101250.88
2023-02-19T09:35:21.671Z,101262.22
2023-02-19T09:37:52.417Z,101270.56
2023-02-19T09:40:26.534Z,101280.72
2023-02-19T09:42:56.692Z,101274.81
2023-02-19T09:45:29.225Z,101269.84
2023-02-19T09:47:59.613Z,101270.97
2023-02-19T09:50:38.797Z,101279.91
2023-02-19T09:53:15.106Z,101289.22
2023-02-19T09:55:44.858Z,101289.91
2023-02-19T09:58:27.394Z,101289.06
2023-02-19T10:00:58.266Z,101298.38
2023-02-19T10:03:31.877Z,101299.91
2023-02-19T10:06:03.713Z,101299.53
2023-02-19T10:08:34.081Z,101300.81
2023-02-19T10:11:04.067Z,101310.03
2023-02-19T10:13:37.617Z,101314.53
2023-02-19T10:16:11.177Z,101323.59
2023-02-19T10:18:42.178Z,101323.91
2023-02-19T10:21:15.854Z,101324.84
2023-02-19T10:23:45.244Z,101331.91
2023-02-19T10:26:14.129Z,101337.75
2023-02-19T10:28:43.298Z,101343.38
2023-02-19T10:31:21.386Z,101352.06
2023-02-19T10:33:54.979Z,101359.75
2023-02-19T10:36:29.855Z,101353.13
2023-02-19T10:39:01.430Z,101362.41
2023-02-19T10:41:30.611Z,101361.25
2023-02-19T10:44:05.330Z,101354.94
2023-02-19T10:46:38.008Z,101368.06
2023-02-19T10:49:09.044Z,101373.25
2023-02-19T10:51:40.035Z,101377.50
2023-02-19T10:54:19.103Z,101380.47
2023-02-19T10:56:49.379Z,101379.97
2023-02-19T10:59:25.518Z,101374.94
2023-02-19T11:02:02.534Z,101384.31
2023-02-19T11:04:38.186Z,101391.63
2023-02-19T11:07:18.994Z,101392.69
2023-02-19T11:09:54.664Z,101402.16
2023-02-19T11:12:31.931Z,101406.13
2023-02-19T11:15:09.400Z,101405.16
2023-02-19T11:17:40.118Z,101420.47
2023-02-19T11:20:14.587Z,101419.34
2023-02-19T11:22:49.313Z,101428.91
2023-02-19T11:25:21.601Z,101430.66
2023-02-19T11:27:57.766Z,101438.91
2023-02-19T11:30:39.890Z,101438.06
2023-02-19T11:33:27.293Z,101433.84
2023-02-19T11:36:01.741Z,101426.41
2023-02-19T11:38:29.883Z,101434.94
2023-02-19T11:41:06.076Z,101422.59
2023-02-19T11:43:47.796Z,101436.09
2023-02-19T11:46:23.840Z,101441.22
2023-02-19T11:48:56.457Z,101436.00
2023-02-19T11:51:34.419Z,101431.59
2023-02-19T11:54:17.236Z,101431.22
2023-02-19T11:56:47.956Z,101426.09
2023-02-19T11:59:24.290Z,101421.72
2023-02-19T12:02:05.210Z,101433.19
2023-02-19T12:05:10.378Z,101427.75
2023-02-19T12:08:04.247Z,101422.44
2023-02-19T12:10:38.271Z,101429.75
2023-02-19T12:13:15.594Z,101429.91
2023-02-19T12:16:06.926Z,101440.06
2023-02-19T12:19:05.045Z,101447.84
2023-02-19T12:21:50.785Z,101443.78
2023-02-19T12:24:37.178Z,101446.94
2023-02-19T12:27:18.309Z,101441.03
2023-02-19T12:29:57.000Z,101449.28
2023-02-19T12:32:43.549Z,101458.94
2023-02-19T12:35:32.314Z,101472.97
2023-02-19T12:38:08.804Z,101461.63
2023-02-19T12:40:54.874Z,101459.72
2023-02-19T12:43:25.172Z,101465.31
2023-02-19T12:45:57.834Z,101473.44
2023-02-19T12:48:33.237Z,101463.22
2023-02-19T12:51:07.301Z,101475.53
2023-02-19T12:53:43.625Z,101476.25
2023-02-19T12:56:17.612Z,101479.09
2023-02-19T12:58:49.730Z,101481.78
2023-02-19T13:01:24.940Z,101478.16
2023-02-19T13:04:19.004Z,101475.69
2023-02-19T13:06:53.519Z,101486.13
2023-02-19T13:09:29.309Z,101493.25
2023-02-19T13:12:00.593Z,101493.97
2023-02-19T13:14:31.774Z,101484.44
2023-02-19T13:17:02.779Z,101502.22
2023-02-19T13:19:32.302Z,101503.50
2023-02-19T13:22:34.176Z,101498.63
2023-02-19T13:25:07.362Z,101503.97
2023-02-19T13:28:06.876Z,101502.38
2023-02-19T13:30:47.395Z,101498.97
2023-02-19T13:33:26.952Z,101502.63
2023-02-19T13:36:08.466Z,101522.63
2023-02-19T13:38:46.589Z,101515.75
2023-02-19T13:41:22.814Z,101510.16
2023-02-19T13:43:57.229Z,101519.19
2023-02-19T13:46:28.337Z,101513.78
2023-02-19T13:49:31.248Z,101513.03
2023-02-19T13:52:04.031Z,101516.81
2023-02-19T13:54:33.768Z,101518.78
2023-02-19T13:57:36.825Z,101520.88
2023-02-19T14:00:43.282Z,101522.97
2023-02-19T14:03:30.863Z,101526.13
2023-02-19T14:06:06.021Z,101546.94
2023-02-19T14:08:57.219Z,101552.28
2023-02-19T14:12:05.287Z,101550.75
2023-02-19T14:14:38.750Z,101559.38
2023-02-19T14:17:39.012Z,101566.91
2023-02-19T14:20:42.458Z,101554.31
2023-02-19T14:23:17.171Z,101562.53
2023-02-19T14:25:52.678Z,101560.22
2023-02-19T14:28:53.166Z,101556.97
2023-02-19T14:31:32.368Z,101558.63
2023-02-19T14:34:05.966Z,101554.34
2023-02-19T14:36:44.198Z,101562.41
2023-02-19T14:39:19.646Z,101550.44
2023-02-19T14:41:50.928Z,101557.44
2023-02-19T14:44:23.196Z,101552.28
2023-02-19T14:46:59.695Z,101552.03
2023-02-19T14:49:32.231Z,101557.47
2023-02-19T14:52:05.277Z,101570.78
2023-02-19T14:54:39.167Z,101567.47
2023-02-19T14:57:14.239Z,101569.22
2023-02-19T14:59:53.364Z,101571.88
2023-02-19T15:02:25.998Z,101576.03
2023-02-19T15:04:54.839Z,101572.44
2023-02-19T15:07:29.802Z,101573.59
2023-02-19T15:10:04.938Z,101585.78
2023-02-19T15:12:38.422Z,101598.28
2023-02-19T15:15:09.310Z,101600.00
2023-02-19T15:17:44.727Z,101598.09
2023-02-19T15:20:20.491Z,101586.44
2023-02-19T15:22:49.460Z,101589.66
2023-02-19T15:25:20.741Z,101599.19
2023-02-19T15:27:53.262Z,101591.59
2023-02-19T15:30:24.647Z,101602.59
2023-02-19T15:32:59.823Z,101589.38
2023-02-19T15:35:30.423Z,101587.69
2023-02-19T15:37:58.817Z,101589.38
2023-02-19T15:40:30.996Z,101596.47
2023-02-19T15:43:00.633Z,101600.28
2023-02-19T15:45:32.727Z,101603.50
2023-02-19T15:48:05.983Z,101603.28
2023-02-19T15:50:35.806Z,101612.66
2023-02-19T15:53:07.176Z,101620.78
2023-02-19T15:55:37.704Z,101612.81
2023-02-19T15:58:10.272Z,101626.31
2023-02-19T16:00:43.605Z,101617.38
2023-02-19T16:03:19.877Z,101641.75
2023-02-19T16:06:00.616Z,101636.50
2023-02-19T16:08:31.729Z,101643.75
2023-02-19T16:11:02.736Z,101654.25
2023-02-19T16:13:34.445Z,101650.09
2023-02-19T16:16:16.072Z,101659.06
2023-02-19T16:18:50.209Z,101658.94
2023-02-19T16:21:22.843Z,101663.84
2023-02-19T16:23:54.550Z,101668.00
2023-02-19T16:26:25.283Z,101670.19
2023-02-19T16:28:54.642Z,101685.06
2023-02-19T16:31:26.601Z,101684.59
2023-02-19T16:34:18.257Z,101681.97
2023-02-19T16:36:51.718Z,101686.00
2023-02-19T16:39:25.708Z,101684.22
2023-02-19T16:42:19.489Z,101689.34
2023-02-19T16:44:51.497Z,101699.59
2023-02-19T16:47:39.687Z,101693.28
2023-02-19T16:50:17.133Z,101703.94
2023-02-19T16:52:55.338Z,101705.91
2023-02-19T16:55:24.184Z,101704.50
2023-02-19T16:57:52.114Z,101700.09
2023-02-19T17:00:23.029Z,101700.84
2023-02-19T17:02:55.231Z,101710.25
2023-02-19T17:05:28.873Z,101713.44
2023-02-19T17:07:58.949Z,101716.19
2023-02-19T17:10:29.481Z,101712.97
2023-02-19T17:12:59.241Z,101711.91
2023-02-19T17:15:30.311Z,101715.88
2023-02-19T17:18:00.776Z,101714.00
2023-02-19T17:20:31.838Z,101706.09
2023-02-19T17:23:00.829Z,101715.88
2023-02-19T17:25:29.568Z,101719.47
2023-02-19T17:27:59.585Z,101727.47
2023-02-19T17:30:31.049Z,101725.97
2023-02-19T17:33:03.243Z,101724.34
2023-02-19T17:35:32.746Z,101727.91
2023-02-19T17:38:00.720Z,101726.22
2023-02-19T17:40:33.424Z,101723.75
2023-02-19T17:43:03.059Z,101724.50
2023-02-19T17:45:32.398Z,101728.69
2023-02-19T17:48:01.110Z,101726.41
2023-02-19T17:50:30.589Z,101735.16
2023-02-19T17:53:00.031Z,101731.47
2023-02-19T17:55:28.461Z,101743.72
2023-02-19T17:57:56.424Z,101748.22
2023-02-19T18:00:29.238Z,101747.03
2023-02-19T18:02:59.882Z,101751.47
2023-02-19T18:05:29.340Z,101747.88
2023-02-19T18:07:57.724Z,101755.59
2023-02-19T18:10:27.286Z,101742.63
2023-02-19T18:12:55.449Z,101755.59
2023-02-19T18:15:27.374Z,101751.63
2023-02-19T18:18:00.118Z,101754.25
2023-02-19T18:20:31.260Z,101755.28
2023-02-19T18:23:00.191Z,101761.31
2023-02-19T18:25:29.636Z,101763.31
2023-02-19T18:28:00.333Z,101762.00
2023-02-19T18:30:30.149Z,101776.88
2023-02-19T18:32:58.714Z,101776.59
2023-02-19T18:35:27.466Z,101774.44
2023-02-19T18:37:56.385Z,101767.81
2023-02-19T18:40:26.548Z,101767.13
2023-02-19T18:42:56.887Z,101778.53
2023-02-19T18:45:24.824Z,101776.47
2023-02-19T18:47:54.726Z,101782.19
2023-02-19T18:50:22.701Z,101782.94
2023-02-19T18:52:50.580Z,101779.00
2023-02-19T18:55:19.690Z,101784.66
2023-02-19T18:57:49.933Z,101785.69
2023-02-19T19:00:22.663Z,101791.78
2023-02-19T19:02:54.138Z,101789.06
2023-02-19T19:05:23.163Z,101788.31
2023-02-19T19:07:53.459Z,101787.38
2023-02-19T19:10:21.736Z,101778.91
2023-02-19T19:12:51.265Z,101785.34
2023-02-19T19:15:22.199Z,101785.09
2023-02-19T19:17:51.840Z,101782.72
2023-02-19T19:20:23.768Z,101774.16
2023-02-19T19:22:52.509Z,101783.00
2023-02-19T19:25:23.276Z,101790.88
2023-02-19T19:27:52.468Z,101789.56
2023-02-19T19:30:24.162Z,101780.81
2023-02-19T19:32:52.743Z,101774.84
2023-02-19T19:35:21.822Z,101780.81
2023-02-19T19:37:49.938Z,101778.59
2023-02-19T19:40:18.412Z,101776.72
2023-02-19T19:42:48.362Z,101774.34
2023-02-19T19:45:17.271Z,101771.81
2023-02-19T19:47:48.662Z,101777.94
2023-02-19T19:50:18.225Z,101771.63
2023-02-19T19:52:46.744Z,101771.81
2023-02-19T19:55:16.038Z,101775.78
2023-02-19T19:57:45.564Z,101776.53
2023-02-19T20:00:17.907Z,101776.16
2023-02-19T20:02:49.475Z,101779.72
2023-02-19T20:05:19.420Z,101774.53
2023-02-19T20:07:49.540Z,101773.94
2023-02-19T20:10:20.451Z,101772.09
2023-02-19T20:12:50.351Z,101772.50
2023-02-19T20:15:21.945Z,101773.53
2023-02-19T20:17:56.672Z,101775.50
2023-02-19T20:20:24.698Z,101776.53
2023-02-19T20:22:54.789Z,101775.50
2023-02-19T20:25:24.037Z,101786.28
2023-02-19T20:27:53.782Z,101794.25
2023-02-19T20:30:23.688Z,101795.28
2023-02-19T20:32:53.417Z,101778.03
2023-02-19T20:35:22.156Z,101787.81
2023-02-19T20:37:50.057Z,101798.34
2023-02-19T20:40:20.765Z,101795.13
2023-02-19T20:42:50.519Z,101797.81
2023-02-19T20:45:18.920Z,101802.41
2023-02-19T20:47:48.924Z,101801.63
2023-02-19T20:50:20.261Z,101799.19
2023-02-19T20:52:49.233Z,101802.75
2023-02-19T20:55:18.132Z,101804.78
2023-02-19T20:57:47.788Z,101798.59
2023-02-19T21:00:17.058Z,101800.97
2023-02-19T21:02:45.763Z,101792.22
2023-02-19T21:05:14.310Z,101803.84
2023-02-19T21:07:45.044Z,101801.97
2023-02-19T21:10:14.889Z,101803.69
2023-02-19T21:12:44.508Z,101792.56
2023-02-19T21:15:14.792Z,101797.81
2023-02-19T21:17:47.148Z,101801.03
2023-02-19T21:20:17.838Z,101794.00
2023-02-19T21:22:47.414Z,101786.78
2023-02-19T21:25:17.000Z,101782.81
2023-02-19T21:27:45.604Z,101784.59
2023-02-19T21:30:14.161Z,101779.47
2023-02-19T21:32:42.373Z,101780.47
2023-02-19T21:35:11.481Z,101770.97
2023-02-19T21:37:43.071Z,101764.69
2023-02-19T21:40:17.189Z,101765.03
2023-02-19T21:42:47.191Z,101758.69
2023-02-19T21:45:18.434Z,101753.69
2023-02-19T21:47:47.932Z,101762.50
2023-02-19T21:50:17.286Z,101765.72
2023-02-19T21:52:45.523Z,101754.78
2023-02-19T21:55:17.108Z,101753.16
2023-02-19T21:57:45.090Z,101756.72
2023-02-19T22:00:17.955Z,101749.00
2023-02-19T22:02:48.180Z,101745.69
2023-02-19T22:05:18.841Z,101735.00
2023-02-19T22:07:50.037Z,101733.31
2023-02-19T22:10:23.963Z,101727.19
2023-02-19T22:12:52.073Z,101727.88
2023-02-19T22:15:20.445Z,101718.94
2023-02-19T22:17:50.583Z,101714.31
2023-02-19T22:20:19.911Z,101717.19
2023-02-19T22:22:49.801Z,101709.47
2023-02-19T22:25:18.208Z,101706.81
2023-02-19T22:27:48.804Z,101702.41
2023-02-19T22:30:17.362Z,101698.00
2023-02-19T22:32:46.672Z,101698.34
2023-02-19T22:35:16.007Z,101707.53
2023-02-19T22:37:44.660Z,101708.53
2023-02-19T22:40:14.888Z,101709.72
2023-02-19T22:42:45.397Z,101716.56
2023-02-19T22:45:15.822Z,101712.69
2023-02-19T22:47:44.649Z,101725.31
2023-02-19T22:50:18.851Z,101731.94
2023-02-19T22:52:49.131Z,101735.75
2023-02-19T22:55:17.897Z,101739.72
2023-02-19T22:57:46.220Z,101744.13
2023-02-19T23:00:22.577Z,101743.09
2023-02-19T23:02:51.804Z,101741.66
2023-02-19T23:05:22.769Z,101736.84
2023-02-19T23:07:52.356Z,101738.44
2023-02-19T23:10:21.306Z,101737.47
2023-02-19T23:12:52.160Z,101732.13
2023-02-19T23:15:25.498Z,101737.59
2023-02-19T23:17:54.971Z,101743.97
2023-02-19T23:20:23.222Z,101738.78
2023-02-19T23:22:51.485Z,101727.09
2023-02-19T23:25:19.496Z,101732.34
2023-02-19T23:27:50.945Z,101737.69
2023-02-19T23:30:23.678Z,101723.09
2023-02-19T23:32:52.019Z,101720.47
2023-02-19T23:35:22.007Z,101722.41
2023-02-19T23:37:49.915Z,101715.22
2023-02-19T23:40:18.885Z,101707.50
2023-02-19T23:42:47.821Z,101707.75
2023-02-19T23:45:18.363Z,101701.63
2023-02-19T23:47:49.431Z,101700.00
2023-02-19T23:50:18.580Z,101703.47
2023-02-19T23:52:46.794Z,101707.22
2023-02-19T23:55:15.715Z,101695.00
2023-02-19T23:57:46.904Z,101689.56
